Dilley, TX (78017)

7:51 PM CDT on August 20, 2014 (GMT -0500)
Cotulla-La Salle County | Change Station
CLOSE
Current Station
Airport
Location: Cotulla,
Elevation: 476 ft
Nearby Weather Stations

Elev 476 ft 28.46 °N, 99.22 °W | Updated 58 minutes ago

Clear
Clear
98 °F
Feels Like 101 °F
N
21
Wind Variable Wind from SE

Today
High -- | Low -- °F
--% Chance of Precip.
Yesterday
High -- | Low -- °F
Precip. -- in
7:08 AM 8:11 PM
Waning Crescent, 18% visible
Pressure 29.79 in
Visibility 10.0 miles
Clouds Clear
Heat Index 101 °F
Dew Point 65 °F
Humidity 34%
Rainfall 0.00 in
Snow Depth Not available.
UV 1 out of 12
Pollen 7.80 out of 12
Air Quality Not available.
Flu Activity Not available.
METAR KCOT 202353Z AUTO 14018KT 10SM CLR 37/18 A2981 RMK AO2 SLP086 T03670183 10389 20344 55009

More Conditions Fewer Conditions

Pressure 29.79 in
Visibility 10.0 miles
Clouds Clear
Heat Index 101 °F
Dew Point 65 °F
Humidity 34%
Rainfall 0.00 in
Snow Depth Not available.
UV 1 out of 12
Pollen 7.80 out of 12
Air Quality Not available.
Flu Activity Not available.
METAR KCOT 202353Z AUTO 14018KT 10SM CLR 37/18 A2981 RMK AO2 SLP086 T03670183 10389 20344 55009

More Conditions Fewer Conditions

Nowcast | as of 7:11 PM CDT on August 20, 2014

Through 9 PM...isolated showers and thunderstorms will move north across portions of the eastern Hill Country and southern portions of south central Texas. Rainfall amounts will be light with most locations receiving one tenth of an inch or less. In the stronger storms rainfall amounts could reach one quarter inch. The showers should dissipate by sunset.

×

10-Day Weather Forecast

Almanac

Astronomy

Aug. 20, 2014 Rise Set
Actual Time 7:08 AM CDT 8:11 PM CDT
Civil Twilight 6:44 AM CDT 8:35 PM CDT
Nautical Twilight 6:15 AM CDT 9:04 PM CDT
Astronomical Twilight 5:45 AM CDT 9:34 PM CDT
Moon 2:58 AM CDT (8/20) 4:49 PM CDT (8/20)
Length of Visible Light 13h 51m
Length of Day
13h 02m
Tomorrow will be 1m 33s shorter.
Waning Crescent, 18% of the Moon is Illuminated
Today
Waning Crescent
Aug 25
New
Sep 2
First Quarter
Sep 8
Full
Sep 15
Last Quarter

Today's Extremes

State Highs State Lows

Community

WunderPhotos

Upload Photos

1,745,823 photos uploaded!

WunderBlogs® & News

Nearby

Snow Depth

Station Depth Elevation
No new snow has been reported.

Earthquake Activity

City Distance Mag. Time & Date
No recent earthquake activity has been reported nearby.
Minimum magnitude displayed is 2.5.

Coastal Water Temperatures

Place Temperature
No Stations Reporting

Nearby Weather Stations